Winnebago, Minnesota
Current Conditions -  °F | °C
As of 8:35 AM on Thursday 27 Nov 2014 (Local Time) from KFRM Reporting Station
Clear Clear  
Wind Chill: -25°   Ceiling: Unl
Heat Index: -8°   Visibility: 10mi
Dew Point: -13°   Wind: 9mph
Humidity: 77%   Direction: 310°NW
Pressure: 30.49"   Gusts: NA
Location:  43.77°N, 94.17°W
Report Text: KFRM 271435Z AUTO 31008KT 10SM CLR M22/M25 A3049 RMK AO1
Loading
Personal Weather Stations






























Interactive Weather Map New forecast layout! Learn more

10-Day Weather Forecast

Advertisements
Track Severe Weather on mobile